Time;durP1;ratioP1;P1;durP2;ratioP2;P2;SDS_P1;SDS_P2;PMS_P1;PMS_P2;Temp;Humidity;BMP_temperature;BMP_pressure;BME280_temperature;BME280_humidity;BME280_pressure;Samples;Min_cycle;Max_cycle;Signal;HPM_P1;HPM_P2
2021/07/26 00:00:29;;;;;;;0.60;0.60;;;;;;;24.94;56.01;100983.56;5024416;28;20056;-72
2021/07/26 00:02:55;;;;;;;0.50;0.50;;;;;;;24.96;56.05;100992.19;5021372;28;20037;-72
2021/07/26 00:05:20;;;;;;;0.65;0.65;;;;;;;24.90;56.10;100985.84;5037641;28;20104;-72
2021/07/26 00:07:46;;;;;;;0.50;0.50;;;;;;;24.91;56.37;100989.31;5039173;28;20053;-72
2021/07/26 00:10:11;;;;;;;0.73;0.73;;;;;;;24.89;56.09;100976.22;5035975;28;20515;-72
2021/07/26 00:12:37;;;;;;;0.70;0.70;;;;;;;24.91;56.01;100976.00;5016761;28;20467;-72
2021/07/26 00:15:06;;;;;;;0.50;0.50;;;;;;;24.91;56.16;100976.00;5055468;28;20381;-72
2021/07/26 00:17:32;;;;;;;0.73;0.73;;;;;;;24.91;56.04;100970.66;5010555;28;20028;-72
2021/07/26 00:19:58;;;;;;;0.70;0.70;;;;;;;24.89;55.95;100973.53;5023191;28;20033;-73
2021/07/26 00:22:23;;;;;;;0.43;0.43;;;;;;;24.90;56.30;100977.84;5010494;28;20065;-72
2021/07/26 00:24:49;;;;;;;0.75;0.75;;;;;;;24.85;56.13;100961.69;5021067;28;20267;-72
2021/07/26 00:27:14;;;;;;;0.50;0.50;;;;;;;24.88;56.19;100971.91;5024601;28;20025;-73
2021/07/26 00:29:40;;;;;;;0.80;0.80;;;;;;;24.89;56.16;100978.06;5024235;28;20069;-71
2021/07/26 00:32:06;;;;;;;0.50;0.50;;;;;;;24.89;56.08;100975.38;5024503;28;20033;-72
2021/07/26 00:34:31;;;;;;;0.63;0.63;;;;;;;24.89;56.54;100978.06;5005785;28;20095;-71
2021/07/26 00:36:58;;;;;;;0.50;0.50;;;;;;;24.87;56.03;100972.94;5020664;28;20378;-73
2021/07/26 00:39:28;;;;;;;0.93;0.93;;;;;;;24.86;56.32;100973.97;5019210;28;20049;-73
2021/07/26 00:41:54;;;;;;;0.50;0.50;;;;;;;24.86;56.29;100963.31;5020150;28;20068;-73
2021/07/26 00:44:22;;;;;;;0.70;0.70;;;;;;;24.83;56.26;100962.91;5051781;28;20030;-73
2021/07/26 00:46:49;;;;;;;0.75;0.75;;;;;;;24.85;56.26;100958.19;5012480;28;20490;-73
2021/07/26 00:49:16;;;;;;;0.73;0.73;;;;;;;24.85;56.34;100959.00;5022635;28;20099;-73
2021/07/26 00:51:47;;;;;;;0.65;0.65;;;;;;;24.83;56.21;100947.75;5020407;28;20123;-72
2021/07/26 00:54:15;;;;;;;0.60;0.60;;;;;;;24.84;56.24;100953.91;5025364;28;20030;-73
2021/07/26 00:56:41;;;;;;;0.63;0.63;;;;;;;24.82;56.18;100951.44;5015786;28;20053;-73
2021/07/26 00:59:09;;;;;;;0.80;0.80;;;;;;;24.83;55.97;100949.59;5024288;28;20527;-73
2021/07/26 01:01:35;;;;;;;0.70;0.70;;;;;;;24.84;56.25;100951.25;5020627;28;20545;-73
2021/07/26 01:04:01;;;;;;;0.70;0.70;;;;;;;24.84;56.09;100945.91;5019636;28;20034;-73
2021/07/26 01:06:27;;;;;;;0.60;0.60;;;;;;;24.83;56.23;100946.94;5005356;28;20396;-73
2021/07/26 01:08:52;;;;;;;0.68;0.68;;;;;;;24.85;56.17;100951.03;5016783;28;20049;-73
2021/07/26 01:11:18;;;;;;;0.65;0.65;;;;;;;24.84;55.93;100954.72;5010182;28;20082;-73
2021/07/26 01:13:43;;;;;;;0.70;0.70;;;;;;;24.84;56.36;100951.25;5016060;28;20485;-73
2021/07/26 01:16:09;;;;;;;0.70;0.70;;;;;;;24.83;56.29;100941.63;5018063;28;20040;-73
2021/07/26 01:18:37;;;;;;;0.70;0.70;;;;;;;24.82;56.26;100945.31;5004731;28;20511;-73
2021/07/26 01:21:04;;;;;;;0.80;0.80;;;;;;;24.79;56.24;100943.88;5020991;28;20042;-73
2021/07/26 01:23:32;;;;;;;0.75;0.75;;;;;;;24.80;56.17;100950.84;5023080;28;20116;-73
2021/07/26 01:25:58;;;;;;;0.77;0.77;;;;;;;24.79;56.55;100948.41;5018881;28;20030;-73
2021/07/26 01:28:27;;;;;;;0.80;0.80;;;;;;;24.80;56.18;100950.03;5027077;28;20026;-73
2021/07/26 01:30:53;;;;;;;0.52;0.52;;;;;;;24.76;56.29;100944.28;5027086;28;20087;-72
2021/07/26 01:33:19;;;;;;;0.68;0.68;;;;;;;24.79;56.27;100943.06;5026333;28;20045;-73
2021/07/26 01:35:45;;;;;;;0.60;0.60;;;;;;;24.75;56.23;100937.31;5027461;28;20040;-73
2021/07/26 01:38:11;;;;;;;0.80;0.80;;;;;;;24.77;56.43;100942.44;5024155;28;20068;-73
2021/07/26 01:40:39;;;;;;;0.60;0.60;;;;;;;24.74;56.33;100941.00;5019228;28;20491;-73
2021/07/26 01:43:09;;;;;;;0.70;0.70;;;;;;;24.76;56.27;100940.78;5018019;28;20045;-73
2021/07/26 01:45:35;;;;;;;;;;;;;;;24.76;56.29;100943.47;5024892;28;20041;-73
2021/07/26 01:48:17;;;;;;;0.90;0.90;;;;;;;24.75;56.31;100947.16;5022932;28;19921;-72
2021/07/26 01:51:06;;;;;;;0.50;0.50;;;;;;;24.75;56.33;100953.28;5020272;28;20049;-73
2021/07/26 01:53:33;;;;;;;0.63;0.63;;;;;;;24.74;56.22;100949.00;5033805;28;20562;-73
2021/07/26 01:56:00;;;;;;;0.77;0.77;;;;;;;24.70;56.21;100942.47;5026618;28;20570;-73
2021/07/26 01:58:26;;;;;;;0.85;0.85;;;;;;;24.71;56.39;100944.91;5029508;28;20049;-73
2021/07/26 02:00:51;;;;;;;0.70;0.70;;;;;;;24.69;56.46;100938.16;5027408;28;20045;-73
2021/07/26 02:03:17;;;;;;;0.90;0.90;;;;;;;24.68;56.20;100933.88;5021867;28;20041;-73
2021/07/26 02:05:43;;;;;;;0.70;0.70;;;;;;;24.67;56.34;100937.56;5022743;28;20033;-73
2021/07/26 02:08:08;;;;;;;0.80;0.80;;;;;;;24.68;56.42;100937.34;5024370;28;20029;-73
2021/07/26 02:10:34;;;;;;;0.60;0.60;;;;;;;24.65;56.35;100936.94;5026268;28;20038;-73
2021/07/26 02:12:59;;;;;;;0.70;0.70;;;;;;;24.64;56.36;100933.47;5023439;28;20049;-73
2021/07/26 02:15:25;;;;;;;0.80;0.80;;;;;;;24.67;56.31;100941.03;5025968;28;20041;-73
2021/07/26 02:17:51;;;;;;;0.68;0.68;;;;;;;24.67;56.43;100942.88;5016699;28;20050;-73
2021/07/26 02:20:16;;;;;;;0.85;0.85;;;;;;;24.65;56.47;100934.28;5024615;28;20522;-73
2021/07/26 02:22:44;;;;;;;1.00;1.00;;;;;;;24.61;56.48;100931.22;5026042;28;20087;-73
2021/07/26 02:25:10;;;;;;;0.90;0.90;;;;;;;24.65;56.50;100935.09;5021427;28;20143;-71
2021/07/26 02:27:36;;;;;;;0.90;0.80;;;;;;;24.64;56.30;100933.47;5005591;28;20586;-71
2021/07/26 02:30:02;;;;;;;0.90;0.90;;;;;;;24.64;56.42;100933.47;5019602;28;20045;-71
2021/07/26 02:32:28;;;;;;;0.60;0.60;;;;;;;24.63;56.47;100933.69;5018181;28;20052;-71
2021/07/26 02:34:53;;;;;;;0.75;0.75;;;;;;;24.64;56.36;100930.00;5017420;28;20508;-71
2021/07/26 02:37:19;;;;;;;0.70;0.70;;;;;;;24.63;56.40;100937.16;5027954;28;20096;-71
2021/07/26 02:39:45;;;;;;;0.73;0.73;;;;;;;24.61;56.40;100938.41;5024579;28;20056;-71
2021/07/26 02:42:10;;;;;;;0.80;0.80;;;;;;;24.59;56.27;100932.44;5022065;28;20030;-71
2021/07/26 02:44:36;;;;;;;0.95;0.95;;;;;;;24.59;56.41;100935.91;5018455;28;20068;-71
2021/07/26 02:47:01;;;;;;;0.95;0.95;;;;;;;24.57;56.46;100931.84;5029972;28;20060;-72
2021/07/26 02:49:27;;;;;;;0.60;0.60;;;;;;;24.60;56.34;100953.56;5020575;28;20040;-72
2021/07/26 02:51:53;;;;;;;0.70;0.70;;;;;;;24.56;56.58;100951.50;5023633;28;20460;-72
2021/07/26 02:54:18;;;;;;;0.80;0.80;;;;;;;24.59;57.01;100959.88;5019715;28;20033;-72
2021/07/26 02:56:44;;;;;;;0.70;0.70;;;;;;;24.59;56.55;100961.72;5025603;28;20041;-72
2021/07/26 02:59:09;;;;;;;0.80;0.80;;;;;;;24.53;56.53;100955.41;5027168;28;20073;-72
2021/07/26 03:01:37;;;;;;;0.77;0.77;;;;;;;24.59;56.48;100959.06;5025476;28;20045;-72
2021/07/26 03:04:02;;;;;;;0.80;0.80;;;;;;;24.58;56.49;100966.25;5024779;28;20042;-72
2021/07/26 03:06:28;;;;;;;0.70;0.70;;;;;;;24.58;56.86;100962.75;5049882;28;20248;-71
2021/07/26 03:08:53;;;;;;;0.50;0.50;;;;;;;24.56;56.43;100960.31;5024069;28;20111;-72
2021/07/26 03:11:19;;;;;;;0.70;0.70;;;;;;;24.55;56.24;100964.00;5041607;28;20095;-72
2021/07/26 03:13:45;;;;;;;0.60;0.60;;;;;;;24.57;56.41;100963.78;5025646;28;20037;-72
2021/07/26 03:16:12;;;;;;;0.60;0.60;;;;;;;24.56;56.45;100962.16;5026037;28;20033;-72
2021/07/26 03:18:38;;;;;;;0.80;0.80;;;;;;;24.54;56.34;100964.22;5010554;28;20033;-72
2021/07/26 03:21:04;;;;;;;0.80;0.80;;;;;;;24.56;56.41;100968.28;5013546;28;20442;-72
2021/07/26 03:23:31;;;;;;;0.73;0.73;;;;;;;24.56;56.60;100970.13;5023528;28;20549;-72
2021/07/26 03:25:56;;;;;;;0.65;0.65;;;;;;;24.51;56.24;100970.75;5015647;28;20451;-72
2021/07/26 03:28:22;;;;;;;0.88;0.88;;;;;;;24.54;56.48;100967.69;5024805;28;20044;-72
2021/07/26 03:30:48;;;;;;;0.70;0.70;;;;;;;24.54;56.33;100980.19;5023893;28;20037;-72
2021/07/26 03:33:14;;;;;;;0.80;0.80;;;;;;;24.54;56.60;100974.84;5023065;28;20060;-72
2021/07/26 03:35:39;;;;;;;0.80;0.80;;;;;;;24.53;56.49;100971.38;5014354;28;20065;-72
2021/07/26 03:38:05;;;;;;;0.70;0.70;;;;;;;24.52;56.48;100974.25;5021224;28;20490;-71
2021/07/26 03:40:35;;;;;;;0.65;0.65;;;;;;;24.50;56.41;100969.13;5027040;28;20033;-72
2021/07/26 03:43:04;;;;;;;0.65;0.65;;;;;;;24.51;56.41;100969.94;5021473;28;20430;-72
2021/07/26 03:45:30;;;;;;;0.70;0.70;;;;;;;24.48;56.43;100973.03;5022725;28;20065;-72
2021/07/26 03:47:59;;;;;;;0.70;0.70;;;;;;;24.49;56.39;100974.66;5016151;28;20038;-72
2021/07/26 03:50:25;;;;;;;0.90;0.90;;;;;;;24.48;56.29;100968.53;5017771;28;20084;-72
2021/07/26 03:52:55;;;;;;;0.80;0.80;;;;;;;24.49;56.34;100982.66;5015440;28;20049;-72
2021/07/26 03:55:23;;;;;;;0.77;0.77;;;;;;;24.49;56.42;100977.31;5024232;28;20021;-72
2021/07/26 03:57:50;;;;;;;1.00;1.00;;;;;;;24.48;56.37;100976.50;5022035;28;20073;-72
2021/07/26 04:00:17;;;;;;;1.10;1.10;;;;;;;24.50;56.40;100984.28;5007391;28;20099;-72
2021/07/26 04:02:46;;;;;;;0.90;0.90;;;;;;;24.48;56.31;100984.50;5023992;28;20509;-72
2021/07/26 04:05:26;;;;;;;0.65;0.65;;;;;;;24.48;56.42;100981.00;5015926;28;20480;-72
2021/07/26 04:07:52;;;;;;;0.90;0.90;;;;;;;24.46;56.47;100983.06;5017779;28;20388;-72
2021/07/26 04:10:18;;;;;;;0.80;0.80;;;;;;;24.46;56.61;100983.88;5023594;28;20044;-71
2021/07/26 04:12:47;;;;;;;0.65;0.65;;;;;;;24.47;56.37;100984.72;5024726;28;20053;-72
2021/07/26 04:15:13;;;;;;;1.00;1.00;;;;;;;24.46;56.33;100981.22;5023885;28;20047;-72
2021/07/26 04:17:39;;;;;;;0.85;0.85;;;;;;;24.45;56.51;100978.78;5014738;28;20049;-72
2021/07/26 04:20:07;;;;;;;0.73;0.73;;;;;;;24.48;56.38;100986.34;5022109;28;20514;-72
2021/07/26 04:22:33;;;;;;;0.73;0.73;;;;;;;24.46;56.33;100986.56;5021924;28;20122;-72
2021/07/26 04:24:59;;;;;;;0.88;0.88;;;;;;;24.41;56.30;100978.34;5015657;28;20041;-72
2021/07/26 04:27:26;;;;;;;0.60;0.60;;;;;;;24.48;56.22;100991.66;5018615;28;20097;-72
2021/07/26 04:29:53;;;;;;;0.77;0.77;;;;;;;24.46;56.39;100993.72;5025553;28;20099;-72
2021/07/26 04:32:18;;;;;;;0.80;0.80;;;;;;;24.46;56.26;100985.72;5022574;28;20338;-72
2021/07/26 04:34:44;;;;;;;0.88;0.88;;;;;;;24.46;56.43;100986.56;5020236;28;20041;-72
2021/07/26 04:37:10;;;;;;;0.70;0.70;;;;;;;24.43;56.29;100980.81;5015386;28;20037;-72
2021/07/26 04:39:35;;;;;;;0.70;0.70;;;;;;;24.46;56.28;100985.72;5024291;28;20037;-72
2021/07/26 04:42:01;;;;;;;0.60;0.60;;;;;;;24.46;56.15;100991.88;5054033;28;20704;-72
2021/07/26 04:44:26;;;;;;;0.70;0.70;;;;;;;24.46;56.23;100993.72;5017837;28;20037;-72
2021/07/26 04:46:52;;;;;;;0.75;0.75;;;;;;;24.47;56.00;100990.84;5025186;28;20048;-72
2021/07/26 04:49:20;;;;;;;0.80;0.80;;;;;;;24.48;56.29;100989.81;5024201;28;20136;-72
2021/07/26 04:51:45;;;;;;;0.70;0.70;;;;;;;24.46;56.08;100991.88;5018091;28;20393;-72
2021/07/26 04:54:11;;;;;;;0.60;0.60;;;;;;;24.49;56.14;100994.13;5016445;28;20042;-72
2021/07/26 04:56:37;;;;;;;0.73;0.73;;;;;;;24.48;56.29;100986.34;5023794;28;20128;-72
2021/07/26 04:59:02;;;;;;;0.55;0.55;;;;;;;24.50;56.14;100993.09;5054358;28;20037;-72
2021/07/26 05:01:28;;;;;;;0.65;0.65;;;;;;;24.50;56.21;100994.94;5031288;28;20049;-72
2021/07/26 05:03:53;;;;;;;0.43;0.43;;;;;;;24.49;56.13;100996.78;5024668;28;20042;-72
2021/07/26 05:06:19;;;;;;;0.60;0.60;;;;;;;24.49;56.18;101004.75;5021179;28;20092;-72
2021/07/26 05:08:45;;;;;;;0.52;0.52;;;;;;;24.48;56.16;101002.31;5024897;28;20047;-72
2021/07/26 05:11:10;;;;;;;0.68;0.68;;;;;;;24.50;56.03;100995.75;5028193;28;20162;-72
2021/07/26 05:13:36;;;;;;;0.80;0.80;;;;;;;24.48;56.22;101003.13;5019280;28;20430;-72
2021/07/26 05:16:01;;;;;;;0.70;0.70;;;;;;;24.45;56.26;100992.91;5027654;28;20502;-72
2021/07/26 05:18:27;;;;;;;0.90;0.90;;;;;;;24.47;56.22;100993.50;5026809;28;20041;-72
2021/07/26 05:20:52;;;;;;;0.80;0.80;;;;;;;24.49;56.24;101001.28;5019265;28;20048;-72
2021/07/26 05:23:18;;;;;;;0.80;0.80;;;;;;;24.48;56.50;100995.16;5026932;28;20056;-72
2021/07/26 05:25:44;;;;;;;0.70;0.70;;;;;;;24.45;56.26;100989.41;5019320;28;20038;-71
2021/07/26 05:28:11;;;;;;;0.50;0.50;;;;;;;24.46;56.39;100997.19;5027727;28;20049;-70
2021/07/26 05:30:37;;;;;;;0.60;0.60;;;;;;;24.47;56.14;101001.50;5019373;28;20396;-70
2021/07/26 05:33:03;;;;;;;0.50;0.50;;;;;;;24.49;56.37;100993.28;5026024;28;20033;-71
2021/07/26 05:35:30;;;;;;;0.70;0.70;;;;;;;24.46;56.40;100994.53;5024248;28;20049;-71
2021/07/26 05:37:56;;;;;;;0.60;0.60;;;;;;;24.46;56.25;100994.53;5023193;28;20037;-71
2021/07/26 05:40:22;;;;;;;0.60;0.60;;;;;;;24.48;56.12;100989.81;5018666;28;20080;-71
2021/07/26 05:42:47;;;;;;;0.68;0.68;;;;;;;24.48;56.30;100989.00;5018797;28;20061;-71
2021/07/26 05:45:13;;;;;;;0.50;0.50;;;;;;;24.47;56.39;100987.38;5013679;28;20026;-71
2021/07/26 05:47:38;;;;;;;0.65;0.65;;;;;;;24.47;56.29;100985.53;5024935;28;20660;-71
2021/07/26 05:50:05;;;;;;;0.60;0.60;;;;;;;24.46;56.18;100985.72;5031347;28;20044;-71
2021/07/26 05:52:31;;;;;;;0.63;0.63;;;;;;;24.46;56.37;100983.06;5026485;28;20041;-71
2021/07/26 05:54:57;;;;;;;0.52;0.52;;;;;;;24.44;56.52;100975.28;5026147;28;20048;-71
2021/07/26 05:57:24;;;;;;;0.70;0.70;;;;;;;24.48;56.29;100981.00;5022997;28;20048;-71
2021/07/26 05:59:53;;;;;;;0.65;0.65;;;;;;;24.44;56.30;100972.63;5027098;28;20029;-71
2021/07/26 06:02:18;;;;;;;0.50;0.50;;;;;;;24.47;56.35;100977.53;5051361;28;20684;-71
2021/07/26 06:04:44;;;;;;;0.50;0.50;;;;;;;24.46;56.40;100975.09;5021308;28;20042;-71
2021/07/26 06:07:10;;;;;;;0.70;0.60;;;;;;;24.48;56.12;100976.50;5026481;28;20037;-71
2021/07/26 06:09:35;;;;;;;0.70;0.70;;;;;;;24.47;56.30;100974.88;5024823;28;20049;-71
2021/07/26 06:12:01;;;;;;;0.55;0.55;;;;;;;24.48;56.17;100973.84;5039639;28;20095;-71
2021/07/26 06:14:26;;;;;;;0.70;0.70;;;;;;;24.50;56.36;100969.13;5014445;28;20033;-71
2021/07/26 06:16:53;;;;;;;0.50;0.50;;;;;;;24.52;56.39;100966.25;5025571;28;20048;-71
2021/07/26 06:19:20;;;;;;;0.60;0.60;;;;;;;24.49;56.44;100975.47;5025936;28;20100;-71
2021/07/26 06:21:54;;;;;;;0.45;0.45;;;;;;;24.49;56.48;100969.34;5021932;28;20087;-71
2021/07/26 06:24:21;;;;;;;0.68;0.68;;;;;;;24.51;56.29;100976.09;5016812;28;20395;-71
2021/07/26 06:26:47;;;;;;;0.70;0.70;;;;;;;24.53;56.34;100974.03;5018612;28;20893;-71
2021/07/26 06:29:13;;;;;;;0.40;0.40;;;;;;;24.54;56.36;100982.84;5025233;28;20037;-71
2021/07/26 06:31:40;;;;;;;0.60;0.60;;;;;;;24.51;56.61;100983.25;5052392;28;20055;-70
2021/07/26 06:34:06;;;;;;;0.50;0.50;;;;;;;24.51;56.34;100978.75;5027402;28;20033;-69
2021/07/26 06:36:32;;;;;;;0.55;0.55;;;;;;;24.50;56.33;100978.97;5021656;28;20034;-70
2021/07/26 06:38:58;;;;;;;0.60;0.60;;;;;;;24.53;56.37;100984.69;5025825;28;20160;-70
2021/07/26 06:41:24;;;;;;;0.40;0.40;;;;;;;24.51;56.38;100978.75;5034222;28;20037;-69
2021/07/26 06:43:53;;;;;;;0.70;0.70;;;;;;;24.57;56.45;100987.75;5014197;28;20120;-70
2021/07/26 06:46:19;;;;;;;0.60;0.60;;;;;;;24.63;56.56;100984.28;5017498;28;20049;-70
2021/07/26 06:48:45;;;;;;;0.50;0.50;;;;;;;24.68;57.00;100987.13;5015762;28;20100;-72
2021/07/26 06:51:11;;;;;;;0.60;0.60;;;;;;;24.75;56.83;100993.25;5023286;28;20049;-70
2021/07/26 06:53:36;;;;;;;1.05;0.80;;;;;;;24.74;57.14;100996.94;5015246;28;20049;-71
2021/07/26 06:56:06;;;;;;;0.60;0.60;;;;;;;24.74;57.06;100996.13;5020394;28;20034;-71
2021/07/26 06:58:32;;;;;;;0.63;0.63;;;;;;;24.78;57.21;101000.84;5022843;28;20647;-71
2021/07/26 07:01:06;;;;;;;0.55;0.55;;;;;;;24.76;57.16;100997.53;5022743;28;20044;-70
2021/07/26 07:03:32;;;;;;;0.60;0.60;;;;;;;24.80;57.29;101001.44;5021051;28;20624;-71
2021/07/26 07:06:14;;;;;;;0.70;0.70;;;;;;;24.82;57.21;101002.06;5024779;28;20069;-71
2021/07/26 07:08:41;;;;;;;0.63;0.63;;;;;;;24.83;57.02;100997.53;5016002;28;20041;-71
2021/07/26 07:11:10;;;;;;;0.60;0.60;;;;;;;24.86;57.15;100987.28;5025251;28;20045;-71
2021/07/26 07:13:38;;;;;;;0.60;0.60;;;;;;;24.89;57.06;100991.38;5041286;28;20038;-71
2021/07/26 07:16:18;;;;;;;0.73;0.73;;;;;;;24.90;56.84;100991.16;5021980;28;20235;-71
2021/07/26 07:18:49;;;;;;;0.50;0.50;;;;;;;24.93;56.49;100993.41;5023156;28;20041;-72
2021/07/26 07:21:23;;;;;;;0.60;0.60;;;;;;;24.94;56.49;101000.34;5023829;28;20084;-71
2021/07/26 07:23:49;;;;;;;0.40;0.40;;;;;;;24.94;56.79;100992.38;5037964;28;20087;-72
2021/07/26 07:26:16;;;;;;;0.52;0.52;;;;;;;24.94;56.50;100992.38;5024372;28;20041;-71
2021/07/26 07:28:44;;;;;;;0.50;0.50;;;;;;;24.96;56.11;100992.19;5023523;28;20034;-72
2021/07/26 07:31:09;;;;;;;0.68;0.68;;;;;;;24.99;56.52;100994.44;5025147;28;20041;-71
2021/07/26 07:33:35;;;;;;;0.50;0.50;;;;;;;24.98;56.32;100996.28;5023467;28;20040;-71
2021/07/26 07:36:04;;;;;;;0.38;0.38;;;;;;;25.00;56.41;100999.56;5024377;28;20033;-72
2021/07/26 07:38:30;;;;;;;0.45;0.45;;;;;;;25.04;56.20;100999.16;5025210;28;20044;-73
2021/07/26 07:40:58;;;;;;;0.50;0.50;;;;;;;25.02;56.38;100994.03;5021995;28;20052;-72
2021/07/26 07:43:25;;;;;;;0.57;0.57;;;;;;;25.03;56.31;100998.34;5019848;28;20144;-71
2021/07/26 07:45:51;;;;;;;0.70;0.70;;;;;;;25.03;56.61;100998.34;5003420;28;20384;-70
2021/07/26 07:48:18;;;;;;;1.55;0.50;;;;;;;25.00;56.42;100988.91;5009317;28;20039;-70
2021/07/26 07:50:44;;;;;;;0.50;0.50;;;;;;;25.06;56.54;101002.41;5049342;28;20432;-70
2021/07/26 07:53:10;;;;;;;0.50;0.50;;;;;;;25.05;56.58;101000.78;5021492;28;20536;-71
2021/07/26 07:55:36;;;;;;;0.50;0.50;;;;;;;25.08;56.69;101003.84;5021660;28;20033;-70
2021/07/26 07:58:02;;;;;;;0.50;0.50;;;;;;;25.09;56.66;101005.47;5020612;28;20041;-72
2021/07/26 08:00:28;;;;;;;0.75;0.75;;;;;;;25.08;56.66;101005.69;5020266;28;20467;-71
2021/07/26 08:02:53;;;;;;;0.40;0.40;;;;;;;25.07;56.60;101004.88;5018757;28;20068;-71
2021/07/26 08:05:19;;;;;;;0.57;0.57;;;;;;;25.11;56.58;101006.09;5022689;28;20041;-71
2021/07/26 08:07:45;;;;;;;0.60;0.60;;;;;;;25.12;56.64;101012.22;5019003;28;20116;-72
2021/07/26 08:10:12;;;;;;;0.50;0.50;;;;;;;25.12;57.04;101010.38;5002136;28;20044;-73
2021/07/26 08:12:38;;;;;;;0.52;0.52;;;;;;;25.10;56.69;101006.28;5022087;28;20486;-73
2021/07/26 08:15:03;;;;;;;0.47;0.47;;;;;;;25.10;56.90;100999.13;5006249;28;20041;-72
2021/07/26 08:17:30;;;;;;;0.60;0.60;;;;;;;25.09;56.98;100996.66;5019800;28;20121;-72
2021/07/26 08:19:55;;;;;;;0.70;0.70;;;;;;;25.09;56.84;100999.31;5021820;28;20823;-72
2021/07/26 08:22:21;;;;;;;0.40;0.40;;;;;;;25.10;56.73;101004.44;5022261;28;20048;-71
2021/07/26 08:24:46;;;;;;;0.50;0.50;;;;;;;25.12;56.76;101010.38;5021330;28;20040;-71
2021/07/26 08:27:12;;;;;;;0.55;0.55;;;;;;;25.12;56.72;101009.56;5021429;28;20041;-72
2021/07/26 08:29:37;;;;;;;0.70;0.70;;;;;;;25.08;56.76;100998.50;5023427;28;20454;-72
2021/07/26 08:32:03;;;;;;;0.50;0.50;;;;;;;25.17;56.93;101007.09;5038292;28;20049;-71
2021/07/26 08:34:29;;;;;;;0.30;0.30;;;;;;;25.20;56.88;101004.00;5020635;28;20045;-71
2021/07/26 08:36:55;;;;;;;0.60;0.60;;;;;;;25.20;56.66;101006.69;5020772;28;20037;-72
2021/07/26 08:39:21;;;;;;;0.47;0.47;;;;;;;25.22;56.71;100999.28;5023957;28;20053;-71
2021/07/26 08:41:47;;;;;;;0.50;0.50;;;;;;;25.23;56.85;101006.25;5024673;28;20065;-71
2021/07/26 08:44:13;;;;;;;0.50;0.50;;;;;;;25.24;56.79;101011.38;5008210;28;20507;-72
2021/07/26 08:46:45;;;;;;;0.40;0.40;;;;;;;25.22;56.92;101002.78;5024437;28;20037;-72
2021/07/26 08:49:15;;;;;;;0.45;0.45;;;;;;;25.23;56.57;101006.25;5023427;28;20069;-71
2021/07/26 08:51:44;;;;;;;0.43;0.43;;;;;;;25.23;56.52;101008.91;5033465;28;20538;-72
2021/07/26 08:54:10;;;;;;;;;;;;;;;25.26;56.75;101014.63;5017531;28;20850;-71
2021/07/26 08:56:37;;;;;;;0.50;0.50;;;;;;;25.24;56.73;101010.56;5018706;28;19960;-72
2021/07/26 08:59:02;;;;;;;0.70;0.50;;;;;;;25.25;56.96;101012.19;5021700;28;20036;-70
2021/07/26 09:01:28;;;;;;;0.40;0.40;;;;;;;25.24;56.95;101019.38;5036869;28;20862;-71
2021/07/26 09:03:56;;;;;;;0.38;0.38;;;;;;;25.25;56.73;101014.84;5049649;28;20136;-71
2021/07/26 09:06:22;;;;;;;0.55;0.55;;;;;;;25.24;56.60;101021.22;5025648;28;20614;-72
2021/07/26 09:08:47;;;;;;;0.43;0.43;;;;;;;25.26;56.78;101025.31;5025545;28;20041;-72
2021/07/26 09:11:13;;;;;;;0.50;0.50;;;;;;;25.27;56.61;101023.44;5024577;28;20107;-72
2021/07/26 09:13:44;;;;;;;1.40;0.43;;;;;;;25.25;56.99;101028.19;5020759;28;20041;-72
2021/07/26 09:16:13;;;;;;;1.00;0.50;;;;;;;25.25;56.97;101028.19;5026105;28;20132;-71
2021/07/26 09:18:39;;;;;;;0.52;0.52;;;;;;;25.22;56.68;101029.41;5025766;28;20045;-71
2021/07/26 09:21:04;;;;;;;0.55;0.43;;;;;;;25.24;56.57;101037.19;5039848;28;20040;-71
2021/07/26 09:23:30;;;;;;;0.60;0.60;;;;;;;25.25;56.79;101031.66;5025999;28;20061;-71
2021/07/26 09:25:55;;;;;;;0.50;0.50;;;;;;;25.23;57.14;101031.06;5006713;28;20029;-71
2021/07/26 09:28:21;;;;;;;0.35;0.35;;;;;;;25.23;57.22;101025.72;5025258;28;20037;-71
2021/07/26 09:30:47;;;;;;;0.45;0.45;;;;;;;25.24;56.81;101029.22;5023284;28;20033;-72
2021/07/26 09:33:32;;;;;;;0.50;0.50;;;;;;;25.21;56.75;101027.78;5022392;28;20640;-74
2021/07/26 09:36:23;;;;;;;0.50;0.50;;;;;;;25.26;56.76;101021.81;5037697;28;20041;-72
2021/07/26 09:38:48;;;;;;;0.40;0.40;;;;;;;25.26;56.63;101024.47;5023565;28;20061;-72
2021/07/26 09:41:15;;;;;;;0.50;0.50;;;;;;;25.27;56.77;101029.59;5021639;28;20590;-72
2021/07/26 09:43:41;;;;;;;0.55;0.55;;;;;;;25.25;56.69;101025.50;5023195;28;20515;-73
2021/07/26 09:46:07;;;;;;;1.80;0.55;;;;;;;25.26;56.90;101029.81;5021661;28;20037;-73
2021/07/26 09:48:33;;;;;;;0.52;0.52;;;;;;;25.22;57.17;101034.75;5022781;28;20071;-73
2021/07/26 09:51:03;;;;;;;0.52;0.52;;;;;;;25.25;57.02;101029.00;4990228;28;20054;-72
2021/07/26 09:53:29;;;;;;;0.68;0.68;;;;;;;25.25;57.08;101026.31;5024299;28;20051;-73
2021/07/26 09:56:13;;;;;;;0.45;0.45;;;;;;;25.16;57.08;101016.13;5021978;28;20072;-73
2021/07/26 09:58:40;;;;;;;0.68;0.68;;;;;;;25.25;57.02;101029.00;5018724;28;20106;-73
2021/07/26 10:01:08;;;;;;;0.40;0.40;;;;;;;25.24;56.99;101032.69;5038003;28;20041;-72
2021/07/26 10:03:36;;;;;;;0.47;0.47;;;;;;;25.22;56.90;101031.28;5021161;28;20146;-74
2021/07/26 10:06:02;;;;;;;0.47;0.47;;;;;;;25.23;56.85;101028.38;5054540;28;20115;-73
2021/07/26 10:08:30;;;;;;;0.50;0.50;;;;;;;25.26;57.12;101032.47;5023455;28;20048;-73
2021/07/26 10:10:56;;;;;;;0.60;0.55;;;;;;;25.23;57.24;101030.25;5005608;28;20102;-73
2021/07/26 10:13:22;;;;;;;0.52;0.52;;;;;;;25.26;57.24;101021.81;5021717;28;20037;-73
2021/07/26 10:15:48;;;;;;;0.57;0.57;;;;;;;25.26;57.07;101021.81;5003552;28;20052;-74
2021/07/26 10:18:14;;;;;;;0.52;0.52;;;;;;;25.29;57.06;101024.06;5040771;28;20052;-74
2021/07/26 10:20:47;;;;;;;0.68;0.68;;;;;;;25.26;57.28;101016.50;5022631;28;20054;-74
2021/07/26 10:23:33;;;;;;;0.50;0.50;;;;;;;25.24;57.50;101023.88;5009832;28;20079;-74
2021/07/26 10:26:03;;;;;;;0.77;0.55;;;;;;;25.25;57.13;101014.84;5012366;28;20061;-74
2021/07/26 10:28:33;;;;;;;;;;;;;;;25.27;57.26;101020.78;5051598;28;20060;-74
2021/07/26 10:30:58;;;;;;;0.50;0.50;;;;;;;25.25;57.14;101025.50;5018961;28;20317;-74
2021/07/26 10:33:24;;;;;;;0.70;0.70;;;;;;;25.25;56.87;101026.31;5020734;28;20087;-74
2021/07/26 10:35:54;;;;;;;0.40;0.40;;;;;;;25.26;57.02;101029.81;5015193;28;20045;-74
2021/07/26 10:38:41;;;;;;;0.35;0.35;;;;;;;25.27;57.18;101023.44;5043045;28;20038;-74
2021/07/26 10:41:07;;;;;;;0.43;0.43;;;;;;;25.24;57.12;101027.34;5023882;28;20365;-74
2021/07/26 10:43:54;;;;;;;0.30;0.30;;;;;;;25.27;57.11;101026.13;5021309;28;20068;-74
2021/07/26 10:46:20;;;;;;;0.40;0.40;;;;;;;25.24;56.98;101018.53;5025887;28;20040;-74
2021/07/26 10:48:52;;;;;;;0.90;0.52;;;;;;;25.26;57.14;101029.81;5025795;28;20045;-74
2021/07/26 10:51:40;;;;;;;0.52;0.52;;;;;;;25.26;57.15;101029.81;5012440;28;20045;-73
2021/07/26 10:54:08;;;;;;;0.50;0.45;;;;;;;25.23;57.17;101028.38;5013091;28;20048;-74
2021/07/26 10:56:59;;;;;;;0.40;0.40;;;;;;;25.24;57.25;101027.34;5041161;28;20501;-74
2021/07/26 10:59:25;;;;;;;0.60;0.60;;;;;;;25.20;57.24;101025.34;5019502;28;20484;-74
2021/07/26 11:02:03;;;;;;;0.45;0.45;;;;;;;25.23;56.95;101024.91;5007262;28;20038;-74
2021/07/26 11:04:33;;;;;;;0.40;0.40;;;;;;;25.20;56.96;101028.00;5022871;28;20443;-72
2021/07/26 11:07:02;;;;;;;;;;;;;;;25.23;57.00;101024.91;5026266;28;20152;-72
2021/07/26 11:09:36;;;;;;;0.40;0.40;;;;;;;25.21;56.69;101029.63;5020070;28;19916;-73
2021/07/26 11:12:02;;;;;;;0.47;0.47;;;;;;;25.20;57.26;101022.66;5022133;28;20033;-73
2021/07/26 11:14:28;;;;;;;0.60;0.60;;;;;;;25.20;57.03;101026.16;5015670;28;20083;-72
2021/07/26 11:17:07;;;;;;;0.45;0.45;;;;;;;25.20;57.10;101017.34;5025259;28;20718;-73
2021/07/26 11:19:43;;;;;;;0.40;0.40;;;;;;;25.23;57.26;101025.72;5030961;28;20037;-73
2021/07/26 11:22:18;;;;;;;0.50;0.50;;;;;;;25.22;57.21;101028.59;5024230;28;20155;-73
2021/07/26 11:24:52;;;;;;;0.43;0.43;;;;;;;25.22;57.11;101016.09;5011981;28;20477;-73
2021/07/26 11:27:37;;;;;;;0.40;0.40;;;;;;;25.22;56.82;101025.94;5039072;28;20041;-72